Time;durP1;ratioP1;P1;durP2;ratioP2;P2;SDS_P1;SDS_P2;PMS_P1;PMS_P2;Temp;Humidity;BMP_temperature;BMP_pressure;BME280_temperature;BME280_humidity;BME280_pressure;Samples;Min_cycle;Max_cycle;Signal;HPM_P1;HPM_P2
2023/08/19 00:00:05;;;;;;;22.37;16.50;;;18.90;99.90;;;;;;5114149;28;20194;-67
2023/08/19 00:02:52;;;;;;;24.67;16.63;;;18.90;99.90;;;;;;5113688;28;20223;-67
2023/08/19 00:05:41;;;;;;;25.83;17.53;;;18.80;99.90;;;;;;5113732;28;20195;-67
2023/08/19 00:08:28;;;;;;;24.77;16.23;;;18.80;99.90;;;;;;5113831;28;20202;-67
2023/08/19 00:11:15;;;;;;;25.23;17.47;;;18.80;99.90;;;;;;5113486;28;20673;-67
2023/08/19 00:14:03;;;;;;;29.27;17.43;;;18.80;99.90;;;;;;5113616;28;20682;-67
2023/08/19 00:16:50;;;;;;;26.40;17.23;;;18.80;99.90;;;;;;5113132;28;20213;-67
2023/08/19 00:19:38;;;;;;;26.57;17.33;;;18.80;99.90;;;;;;5113887;28;20202;-67
2023/08/19 00:22:26;;;;;;;24.73;17.33;;;18.80;99.90;;;;;;5114253;28;20684;-67
2023/08/19 00:25:14;;;;;;;23.00;17.10;;;18.80;99.90;;;;;;5112886;28;20195;-67
2023/08/19 00:28:03;;;;;;;26.03;17.33;;;18.80;99.90;;;;;;5113264;28;20210;-67
2023/08/19 00:30:51;;;;;;;25.27;16.90;;;18.70;99.90;;;;;;5113633;28;20568;-67
2023/08/19 00:33:38;;;;;;;26.53;18.03;;;18.70;99.90;;;;;;5113569;28;20681;-67
2023/08/19 00:36:25;;;;;;;24.90;18.33;;;18.60;99.90;;;;;;5112424;28;20205;-67
2023/08/19 00:39:14;;;;;;;27.20;18.93;;;18.60;99.90;;;;;;5112397;28;20218;-67
2023/08/19 00:42:01;;;;;;;29.27;17.80;;;18.60;99.90;;;;;;5112809;28;20203;-67
2023/08/19 00:44:48;;;;;;;23.47;17.60;;;18.50;99.90;;;;;;5113140;28;20195;-67
2023/08/19 00:47:35;;;;;;;27.60;18.20;;;18.50;99.90;;;;;;5113154;28;20265;-67
2023/08/19 00:50:24;;;;;;;29.50;17.60;;;18.50;99.90;;;;;;5112572;28;20284;-67
2023/08/19 00:53:11;;;;;;;26.73;17.07;;;18.50;99.90;;;;;;5112218;28;20219;-67
2023/08/19 00:56:00;;;;;;;24.70;17.73;;;18.60;99.90;;;;;;5113103;28;20191;-67
2023/08/19 00:58:47;;;;;;;23.47;16.80;;;18.60;99.90;;;;;;5112323;28;20206;-67
2023/08/19 01:01:34;;;;;;;24.30;17.07;;;18.60;99.90;;;;;;5112153;28;20235;-67
2023/08/19 01:04:22;;;;;;;31.83;15.87;;;18.50;99.90;;;;;;5112107;28;20202;-67
2023/08/19 01:07:12;;;;;;;27.20;17.50;;;18.50;99.90;;;;;;5112773;28;20552;-67
2023/08/19 01:10:02;;;;;;;23.47;15.27;;;18.50;99.90;;;;;;5111939;28;20199;-67
2023/08/19 01:13:00;;;;;;;22.03;15.67;;;18.50;99.90;;;;;;5113139;28;20226;-67
2023/08/19 01:15:51;;;;;;;30.17;16.53;;;18.50;99.90;;;;;;5112580;28;20553;-67
2023/08/19 01:18:38;;;;;;;20.83;15.57;;;18.50;99.90;;;;;;5112310;28;20198;-67
2023/08/19 01:21:25;;;;;;;26.17;15.73;;;18.50;99.90;;;;;;5112434;28;20209;-67
2023/08/19 01:24:13;;;;;;;26.73;16.07;;;18.50;99.90;;;;;;5112499;28;20217;-68
2023/08/19 01:27:02;;;;;;;26.70;15.30;;;18.40;99.90;;;;;;5112358;28;20201;-68
2023/08/19 01:29:50;;;;;;;20.73;15.30;;;18.40;99.90;;;;;;5112273;28;20656;-67
2023/08/19 01:32:38;;;;;;;28.23;15.50;;;18.40;99.90;;;;;;5112188;28;20218;-68
2023/08/19 01:35:25;;;;;;;22.07;14.97;;;18.40;99.90;;;;;;5112449;28;20284;-67
2023/08/19 01:38:15;;;;;;;22.50;14.73;;;18.30;99.90;;;;;;5112037;28;20692;-68
2023/08/19 01:41:03;;;;;;;22.53;15.50;;;18.30;99.90;;;;;;5111732;28;20666;-67
2023/08/19 01:43:51;;;;;;;22.67;15.07;;;18.30;99.90;;;;;;5111867;28;20199;-67
2023/08/19 01:46:39;;;;;;;21.23;14.97;;;18.30;99.90;;;;;;5111475;28;20252;-67
2023/08/19 01:49:26;;;;;;;21.93;15.60;;;18.20;99.90;;;;;;5111061;28;20230;-67
2023/08/19 01:52:13;;;;;;;23.03;15.83;;;18.20;99.90;;;;;;5111929;28;20226;-67
2023/08/19 01:55:01;;;;;;;22.90;15.47;;;18.20;99.90;;;;;;5110662;28;20199;-67
2023/08/19 01:57:48;;;;;;;22.20;15.53;;;18.10;99.90;;;;;;5111670;28;20191;-67
2023/08/19 02:00:37;;;;;;;19.63;14.20;;;18.10;99.90;;;;;;5111731;28;20200;-68
2023/08/19 02:03:24;;;;;;;19.73;13.97;;;18.00;99.90;;;;;;5111755;28;20233;-67
2023/08/19 02:06:11;;;;;;;22.97;15.03;;;18.00;99.90;;;;;;5111450;28;20203;-68
2023/08/19 02:08:58;;;;;;;21.07;15.40;;;18.00;99.90;;;;;;5110868;28;20191;-68
2023/08/19 02:11:45;;;;;;;20.63;14.63;;;18.00;99.90;;;;;;5111096;28;20201;-67
2023/08/19 02:14:32;;;;;;;24.27;14.87;;;18.00;99.90;;;;;;5110981;28;20301;-67
2023/08/19 02:17:21;;;;;;;24.23;14.70;;;18.00;99.90;;;;;;5112074;28;20197;-67
2023/08/19 02:20:09;;;;;;;20.97;13.87;;;17.90;99.90;;;;;;5110933;28;20664;-68
2023/08/19 02:22:57;;;;;;;23.33;13.03;;;17.80;99.90;;;;;;5111106;28;20678;-68
2023/08/19 02:25:44;;;;;;;22.03;13.30;;;17.80;99.90;;;;;;5111222;28;20237;-68
2023/08/19 02:28:31;;;;;;;19.57;13.97;;;17.70;99.90;;;;;;5112227;28;20229;-68
2023/08/19 02:31:18;;;;;;;19.23;13.00;;;17.70;99.90;;;;;;5110617;28;20210;-67
2023/08/19 02:34:07;;;;;;;17.30;13.63;;;17.70;99.90;;;;;;5111357;28;20213;-67
2023/08/19 02:36:54;;;;;;;17.13;11.60;;;17.80;99.90;;;;;;5111414;28;20229;-67
2023/08/19 02:39:41;;;;;;;19.70;12.70;;;17.70;99.90;;;;;;5107967;28;20198;-67
2023/08/19 02:42:29;;;;;;;19.33;13.30;;;17.70;99.90;;;;;;5110553;28;20198;-67
2023/08/19 02:45:16;;;;;;;23.30;13.90;;;17.70;99.90;;;;;;5110705;28;20201;-67
2023/08/19 02:48:03;;;;;;;28.47;14.27;;;17.70;99.90;;;;;;5111294;28;20257;-68
2023/08/19 02:50:54;;;;;;;19.70;13.03;;;17.60;99.90;;;;;;5110570;28;20230;-67
2023/08/19 02:53:42;;;;;;;23.80;14.57;;;17.40;99.90;;;;;;5111150;28;20320;-67
2023/08/19 02:56:29;;;;;;;21.40;13.93;;;17.50;99.90;;;;;;5111137;28;20213;-68
2023/08/19 02:59:16;;;;;;;19.63;13.77;;;17.50;99.90;;;;;;5110738;28;20202;-67
2023/08/19 03:02:03;;;;;;;21.17;14.40;;;17.50;99.90;;;;;;5114421;28;20221;-67
2023/08/19 03:04:51;;;;;;;17.87;13.07;;;17.50;99.90;;;;;;5115204;28;20304;-68
2023/08/19 03:07:40;;;;;;;21.40;13.83;;;17.50;99.90;;;;;;5114450;28;20280;-67
2023/08/19 03:10:27;;;;;;;19.57;13.67;;;17.50;99.90;;;;;;5114794;28;20222;-67
2023/08/19 03:13:14;;;;;;;17.17;12.87;;;17.40;99.90;;;;;;5113889;28;20203;-68
2023/08/19 03:16:02;;;;;;;21.20;13.13;;;17.50;99.90;;;;;;5114880;28;20610;-68
2023/08/19 03:18:50;;;;;;;20.37;12.93;;;17.40;99.90;;;;;;5114842;28;20683;-67
2023/08/19 03:21:37;;;;;;;18.53;13.53;;;17.40;99.90;;;;;;5114868;28;20201;-67
2023/08/19 03:24:27;;;;;;;19.57;13.70;;;17.30;99.90;;;;;;5114841;28;20200;-68
2023/08/19 03:27:14;;;;;;;18.87;13.43;;;17.30;99.90;;;;;;5114649;28;20197;-68
2023/08/19 03:30:01;;;;;;;20.87;12.90;;;17.30;99.90;;;;;;5115429;28;20624;-68
2023/08/19 03:32:48;;;;;;;20.73;13.53;;;17.20;99.90;;;;;;5114113;28;20197;-68
2023/08/19 03:35:35;;;;;;;22.07;13.40;;;17.30;99.90;;;;;;5114500;28;20205;-68
2023/08/19 03:38:23;;;;;;;19.07;12.90;;;17.20;99.90;;;;;;5113828;28;20608;-68
2023/08/19 03:41:11;;;;;;;17.97;12.63;;;17.20;99.90;;;;;;5114472;28;20213;-68
2023/08/19 03:43:58;;;;;;;19.13;12.93;;;17.10;99.90;;;;;;5114398;28;20566;-68
2023/08/19 03:46:46;;;;;;;24.60;12.87;;;17.20;99.90;;;;;;5113781;28;20700;-68
2023/08/19 03:49:33;;;;;;;20.90;12.80;;;17.20;99.90;;;;;;5114391;28;20207;-68
2023/08/19 03:52:23;;;;;;;24.23;14.60;;;17.20;99.90;;;;;;5114644;28;20218;-68
2023/08/19 03:55:10;;;;;;;29.53;16.17;;;17.20;99.90;;;;;;5113841;28;20280;-68
2023/08/19 03:57:59;;;;;;;24.13;15.13;;;17.20;99.90;;;;;;5114749;28;20226;-68
2023/08/19 04:00:47;;;;;;;22.50;14.87;;;17.30;99.90;;;;;;5113418;28;20197;-68
2023/08/19 04:03:35;;;;;;;22.83;15.27;;;17.30;99.90;;;;;;5114061;28;20286;-68
2023/08/19 04:06:22;;;;;;;24.73;16.57;;;17.30;99.90;;;;;;5113996;28;20207;-68
2023/08/19 04:09:09;;;;;;;18.57;12.50;;;17.40;99.90;;;;;;5114353;28;20201;-68
2023/08/19 04:11:57;;;;;;;23.27;13.73;;;17.10;99.90;;;;;;5112767;28;20196;-68
2023/08/19 04:14:45;;;;;;;23.77;14.07;;;17.10;99.90;;;;;;5113703;28;20222;-68
2023/08/19 04:17:35;;;;;;;25.43;14.30;;;17.10;99.90;;;;;;5113668;28;20194;-68
2023/08/19 04:20:22;;;;;;;23.37;14.87;;;17.20;99.90;;;;;;5113932;28;20202;-68
2023/08/19 04:23:10;;;;;;;19.00;14.53;;;17.30;99.90;;;;;;5113459;28;20284;-68
2023/08/19 04:25:57;;;;;;;23.43;15.07;;;17.40;99.90;;;;;;5114138;28;20201;-68
2023/08/19 04:28:44;;;;;;;23.43;13.83;;;17.50;99.90;;;;;;5113973;28;20206;-68
2023/08/19 04:31:33;;;;;;;24.70;14.27;;;17.40;99.90;;;;;;5113561;28;20196;-68
2023/08/19 04:34:21;;;;;;;24.80;13.77;;;17.40;99.90;;;;;;5113349;28;20301;-68
2023/08/19 04:37:09;;;;;;;21.20;14.30;;;17.50;99.90;;;;;;5114098;28;20205;-68
2023/08/19 04:39:56;;;;;;;19.47;12.73;;;17.60;99.90;;;;;;5113380;28;20192;-68
2023/08/19 04:42:44;;;;;;;20.77;13.53;;;17.80;99.90;;;;;;5113229;28;20202;-68
2023/08/19 04:45:31;;;;;;;15.03;12.87;;;17.80;99.90;;;;;;5113128;28;20204;-68
2023/08/19 04:48:20;;;;;;;17.83;14.13;;;17.90;99.90;;;;;;5113244;28;20202;-68
2023/08/19 04:51:07;;;;;;;24.37;13.50;;;18.00;99.90;;;;;;5113423;28;20216;-68
2023/08/19 04:53:54;;;;;;;20.30;14.50;;;18.10;99.90;;;;;;5113641;28;20229;-68
2023/08/19 04:56:41;;;;;;;19.50;14.30;;;18.20;99.90;;;;;;5112920;28;20552;-68
2023/08/19 04:59:29;;;;;;;21.70;14.97;;;18.40;99.90;;;;;;5112661;28;20194;-68
2023/08/19 05:02:16;;;;;;;19.03;15.43;;;18.50;99.90;;;;;;5112869;28;20249;-68
2023/08/19 05:05:05;;;;;;;22.20;16.03;;;18.60;99.90;;;;;;5112690;28;20192;-68
2023/08/19 05:07:53;;;;;;;23.47;15.30;;;18.80;99.90;;;;;;5112205;28;20206;-68
2023/08/19 05:10:40;;;;;;;25.50;15.97;;;18.90;99.90;;;;;;5112657;28;20252;-68
2023/08/19 05:13:27;;;;;;;20.23;16.10;;;19.00;99.90;;;;;;5113178;28;20226;-68
2023/08/19 05:16:14;;;;;;;20.60;15.80;;;19.20;99.90;;;;;;5112466;28;20191;-68
2023/08/19 05:19:07;;;;;;;23.00;17.73;;;19.30;99.90;;;;;;5112373;28;20205;-68
2023/08/19 05:21:56;;;;;;;22.10;16.20;;;19.40;99.90;;;;;;5112318;28;20586;-68
2023/08/19 05:24:43;;;;;;;23.97;17.33;;;19.60;99.90;;;;;;5111774;28;20274;-68
2023/08/19 05:27:30;;;;;;;25.13;18.23;;;19.80;99.90;;;;;;5111947;28;20203;-68
2023/08/19 05:30:18;;;;;;;23.63;18.00;;;19.90;99.90;;;;;;5111528;28;20662;-68
2023/08/19 05:33:05;;;;;;;25.30;17.17;;;20.00;99.90;;;;;;5112475;28;20282;-68
2023/08/19 05:35:52;;;;;;;26.67;17.03;;;20.20;99.90;;;;;;5111586;28;20198;-68
2023/08/19 05:38:41;;;;;;;24.23;17.00;;;20.30;99.90;;;;;;5111525;28;20199;-68
2023/08/19 05:41:28;;;;;;;24.10;17.53;;;20.50;99.90;;;;;;5111246;28;20191;-68
2023/08/19 05:44:15;;;;;;;24.47;16.87;;;20.60;99.90;;;;;;5111916;28;20291;-68
2023/08/19 05:47:03;;;;;;;24.20;15.73;;;20.80;99.90;;;;;;5111341;28;20202;-68
2023/08/19 05:49:51;;;;;;;26.10;16.53;;;21.00;99.90;;;;;;5111809;28;20202;-68
2023/08/19 05:52:38;;;;;;;19.53;15.20;;;21.10;99.90;;;;;;5111248;28;20595;-68
2023/08/19 05:55:27;;;;;;;25.50;15.77;;;21.30;99.90;;;;;;5112189;28;20301;-68
2023/08/19 05:58:14;;;;;;;20.40;14.47;;;21.40;99.90;;;;;;5112068;28;20670;-68
2023/08/19 06:01:03;;;;;;;20.40;14.23;;;21.50;99.90;;;;;;5111942;28;20199;-68
2023/08/19 06:03:51;;;;;;;20.10;15.07;;;21.60;99.90;;;;;;5090913;28;20283;-68
2023/08/19 06:06:40;;;;;;;20.23;14.90;;;21.80;99.90;;;;;;5075807;28;20199;-68
2023/08/19 06:09:27;;;;;;;22.80;14.57;;;21.90;99.90;;;;;;5090832;28;20275;-68
2023/08/19 06:12:16;;;;;;;19.90;13.07;;;22.00;99.90;;;;;;5091843;28;20260;-68
2023/08/19 06:15:05;;;;;;;18.00;12.57;;;22.10;99.90;;;;;;5091691;28;20590;-68
2023/08/19 06:17:53;;;;;;;18.00;13.43;;;22.20;99.90;;;;;;5091885;28;20199;-69
2023/08/19 06:20:41;;;;;;;18.90;12.20;;;22.40;99.90;;;;;;5092044;28;20245;-68
2023/08/19 06:23:29;;;;;;;18.23;12.10;;;22.60;99.90;;;;;;5091783;28;20195;-68
2023/08/19 06:26:17;;;;;;;16.30;11.90;;;22.60;99.90;;;;;;5090923;28;20278;-68
2023/08/19 06:29:05;;;;;;;14.67;10.53;;;22.80;99.90;;;;;;5091942;28;20200;-68
2023/08/19 06:31:54;;;;;;;14.77;10.10;;;23.00;99.90;;;;;;5091689;28;20289;-68
2023/08/19 06:34:44;;;;;;;12.80;9.17;;;23.10;99.90;;;;;;5091535;28;20579;-68
2023/08/19 06:37:32;;;;;;;11.53;9.37;;;23.10;99.90;;;;;;5094712;28;20199;-68
2023/08/19 06:40:21;;;;;;;11.85;9.23;;;23.20;99.90;;;;;;5095191;28;20200;-68
2023/08/19 06:43:09;;;;;;;14.32;9.57;;;23.40;99.90;;;;;;5094527;28;20219;-68
2023/08/19 06:45:58;;;;;;;11.15;9.23;;;23.60;99.90;;;;;;5094762;28;20196;-67
2023/08/19 06:48:49;;;;;;;17.57;10.23;;;23.70;99.90;;;;;;5095060;28;20203;-68
2023/08/19 06:51:37;;;;;;;13.02;9.45;;;23.80;99.90;;;;;;5095160;28;20216;-68
2023/08/19 06:54:25;;;;;;;15.90;9.70;;;23.90;99.90;;;;;;5095243;28;20219;-67
2023/08/19 06:57:24;;;;;;;13.48;9.50;;;24.00;99.90;;;;;;5094907;28;20650;-67
2023/08/19 07:00:18;;;;;;;13.45;9.35;;;24.20;99.90;;;;;;5095280;28;20280;-67
2023/08/19 07:03:10;;;;;;;11.70;9.50;;;24.40;99.90;;;;;;5094450;28;20224;-67
2023/08/19 07:05:58;;;;;;;13.85;8.75;;;24.50;99.90;;;;;;5094135;28;20344;-67
2023/08/19 07:08:46;;;;;;;11.35;8.90;;;24.50;99.90;;;;;;5094065;28;20196;-67
2023/08/19 07:11:33;;;;;;;11.95;8.80;;;24.60;99.90;;;;;;5094406;28;20279;-67
2023/08/19 07:14:23;;;;;;;12.10;9.57;;;24.70;99.90;;;;;;5094343;28;20218;-67
2023/08/19 07:17:10;;;;;;;12.45;9.15;;;24.60;99.90;;;;;;5094372;28;20191;-68
2023/08/19 07:20:03;;;;;;;16.90;9.05;;;24.80;99.90;;;;;;5093705;28;20211;-67
2023/08/19 07:22:52;;;;;;;13.93;9.70;;;24.80;99.90;;;;;;5093961;28;20552;-67
2023/08/19 07:25:42;;;;;;;13.85;10.13;;;24.90;99.90;;;;;;5093195;28;20192;-67
2023/08/19 07:28:30;;;;;;;11.52;8.80;;;25.10;99.90;;;;;;5093883;28;20682;-67
2023/08/19 07:31:18;;;;;;;11.23;8.93;;;25.20;99.90;;;;;;5093959;28;20195;-67
2023/08/19 07:34:09;;;;;;;12.27;9.35;;;25.30;99.90;;;;;;5093329;28;20257;-67
2023/08/19 07:37:00;;;;;;;11.90;9.32;;;25.40;99.90;;;;;;5079420;28;20217;-67
2023/08/19 07:39:55;;;;;;;12.88;9.65;;;25.60;99.90;;;;;;5094010;28;20204;-67
2023/08/19 07:42:42;;;;;;;12.25;9.82;;;25.90;99.90;;;;;;5094780;28;20203;-67
2023/08/19 07:45:32;;;;;;;15.77;9.30;;;25.90;99.90;;;;;;5092620;28;20196;-67
2023/08/19 07:48:19;;;;;;;12.93;9.35;;;26.10;99.90;;;;;;5073951;28;20201;-67
2023/08/19 07:51:06;;;;;;;16.00;9.10;;;26.30;99.90;;;;;;5073486;28;20212;-67
2023/08/19 07:54:16;;;;;;;11.25;9.57;;;26.20;99.90;;;;;;5073448;28;20196;-67
2023/08/19 07:57:04;;;;;;;11.35;8.82;;;26.30;99.90;;;;;;5073049;28;20192;-67
2023/08/19 07:59:51;;;;;;;13.38;9.15;;;26.20;99.90;;;;;;5073470;28;20204;-67
2023/08/19 08:02:39;;;;;;;14.93;9.07;;;26.50;99.90;;;;;;5078947;28;20224;-67
2023/08/19 08:05:27;;;;;;;11.43;8.40;;;26.70;99.90;;;;;;5093453;28;20274;-67
2023/08/19 08:08:16;;;;;;;11.63;8.60;;;26.50;99.90;;;;;;5093658;28;20208;-67
2023/08/19 08:11:05;;;;;;;10.27;8.35;;;26.70;99.90;;;;;;5113766;28;20199;-67
2023/08/19 08:13:52;;;;;;;13.70;8.70;;;27.00;99.90;;;;;;5113862;28;20199;-67
2023/08/19 08:16:46;;;;;;;13.77;8.57;;;27.10;99.90;;;;;;5113794;28;20199;-67
2023/08/19 08:19:35;;;;;;;12.48;8.07;;;27.10;99.90;;;;;;5113799;28;20210;-67
2023/08/19 08:22:23;;;;;;;11.10;7.80;;;26.90;99.90;;;;;;5113594;28;20202;-66
2023/08/19 08:25:10;;;;;;;12.93;8.35;;;26.60;99.90;;;;;;5113108;28;20226;-67
2023/08/19 08:27:59;;;;;;;15.07;8.70;;;26.70;99.90;;;;;;5113603;28;20198;-67
2023/08/19 08:30:54;;;;;;;12.38;9.15;;;27.10;99.90;;;;;;5113528;28;20195;-67
2023/08/19 08:33:47;;;;;;;12.95;8.75;;;27.30;99.90;;;;;;5113535;28;20272;-67
2023/08/19 08:36:35;;;;;;;9.65;8.30;;;27.30;99.90;;;;;;5113333;28;20560;-67
2023/08/19 08:39:22;;;;;;;11.95;8.48;;;27.40;99.90;;;;;;5113282;28;20195;-66
2023/08/19 08:42:19;;;;;;;11.45;8.35;;;27.60;99.90;;;;;;5113027;28;20217;-66
2023/08/19 08:45:16;;;;;;;13.05;8.68;;;27.70;99.90;;;;;;5113164;28;20192;-67
2023/08/19 08:48:06;;;;;;;12.85;8.40;;;27.60;99.90;;;;;;5112445;28;20225;-66
2023/08/19 08:50:53;;;;;;;11.07;8.30;;;27.70;99.90;;;;;;5112540;28;20199;-67
2023/08/19 08:53:41;;;;;;;18.92;7.65;;;28.10;99.90;;;;;;5112955;28;20198;-67
2023/08/19 08:56:28;;;;;;;9.70;7.72;;;28.30;99.90;;;;;;5113528;28;20582;-66
2023/08/19 08:59:16;;;;;;;8.27;7.05;;;28.10;99.90;;;;;;5112100;28;20203;-67
2023/08/19 09:02:08;;;;;;;12.57;6.90;;;28.10;99.90;;;;;;5106091;28;20228;-66
2023/08/19 09:05:05;;;;;;;10.52;6.85;;;28.40;99.90;;;;;;5092000;28;20567;-66
2023/08/19 09:07:52;;;;;;;9.88;7.20;;;28.90;99.90;;;;;;5092679;28;20199;-67
2023/08/19 09:10:40;;;;;;;11.95;7.00;;;28.90;99.90;;;;;;5071898;28;20682;-67
2023/08/19 09:13:29;;;;;;;10.07;6.45;;;28.90;99.90;;;;;;5071684;28;20212;-66
2023/08/19 09:16:16;;;;;;;8.52;6.72;;;29.10;99.90;;;;;;5071820;28;20208;-66
2023/08/19 09:19:06;;;;;;;14.60;6.97;;;29.10;99.90;;;;;;5071139;28;20192;-66
2023/08/19 09:22:08;;;;;;;9.88;7.50;;;29.10;99.90;;;;;;5071017;28;20192;-66
2023/08/19 09:24:57;;;;;;;11.18;7.50;;;29.60;99.90;;;;;;5070607;28;20655;-66
2023/08/19 09:27:47;;;;;;;12.23;7.63;;;29.60;99.90;;;;;;5070812;28;20204;-67
2023/08/19 09:30:34;;;;;;;11.15;7.15;;;29.60;99.90;;;;;;5071244;28;20279;-67
2023/08/19 09:33:22;;;;;;;10.68;6.95;;;29.80;99.90;;;;;;5070914;28;20196;-66
2023/08/19 09:36:11;;;;;;;10.90;7.20;;;29.70;99.90;;;;;;5070351;28;20692;-67
2023/08/19 09:38:59;;;;;;;9.00;6.95;;;29.90;99.90;;;;;;5070144;28;20201;-66
2023/08/19 09:41:46;;;;;;;11.50;6.47;;;29.40;99.90;;;;;;5071041;28;20275;-66
2023/08/19 09:44:33;;;;;;;11.95;6.57;;;29.80;99.90;;;;;;5070375;28;20553;-66
2023/08/19 09:47:21;;;;;;;9.75;6.65;;;30.20;99.90;;;;;;5084272;28;20681;-66
2023/08/19 09:50:08;;;;;;;11.32;6.32;;;30.30;99.90;;;;;;5091158;28;20199;-66
2023/08/19 09:52:58;;;;;;;7.45;6.55;;;30.30;93.70;;;;;;5090279;28;20307;-66
2023/08/19 09:55:47;;;;;;;9.18;6.03;;;30.40;98.40;;;;;;5090857;28;20239;-67
2023/08/19 09:58:34;;;;;;;8.68;6.80;;;30.40;90.40;;;;;;5091618;28;20199;-66
2023/08/19 10:01:22;;;;;;;8.70;6.70;;;29.90;93.20;;;;;;5091947;28;20551;-66
2023/08/19 10:04:10;;;;;;;13.18;7.07;;;30.20;95.80;;;;;;5110316;28;20238;-67
2023/08/19 10:06:58;;;;;;;6.93;6.20;;;30.50;95.30;;;;;;5111359;28;20281;-66
2023/08/19 10:09:46;;;;;;;9.15;6.80;;;30.30;92.80;;;;;;5110773;28;20222;-66
2023/08/19 10:12:34;;;;;;;10.90;6.22;;;29.90;95.00;;;;;;5112091;28;20277;-66
2023/08/19 10:15:30;;;;;;;11.00;6.63;;;30.20;99.90;;;;;;5110275;28;20372;-66
2023/08/19 10:18:19;;;;;;;7.25;6.55;;;30.20;99.90;;;;;;5111699;28;20655;-66
2023/08/19 10:21:08;;;;;;;7.88;6.93;;;30.20;95.80;;;;;;5111663;28;20256;-66
2023/08/19 10:23:56;;;;;;;9.23;6.90;;;30.50;97.70;;;;;;5111490;28;20595;-66
2023/08/19 10:26:47;;;;;;;8.18;6.70;;;30.90;96.50;;;;;;5111531;28;20198;-66
2023/08/19 10:29:34;;;;;;;8.38;6.72;;;31.10;97.30;;;;;;5110892;28;20654;-66
2023/08/19 10:32:28;;;;;;;7.82;6.28;;;31.60;99.70;;;;;;5111650;28;20192;-66
2023/08/19 10:35:17;;;;;;;10.43;6.20;;;31.70;91.20;;;;;;5111215;28;20612;-66
2023/08/19 10:38:09;;;;;;;7.35;6.00;;;31.40;93.70;;;;;;5111628;28;20191;-66
2023/08/19 10:41:04;;;;;;;7.90;5.43;;;31.60;89.80;;;;;;5111407;28;20187;-66
2023/08/19 10:43:59;;;;;;;7.20;5.72;;;31.30;78.40;;;;;;5111251;28;20195;-66
2023/08/19 10:46:47;;;;;;;7.80;5.50;;;30.70;83.70;;;;;;5110995;28;20280;-66
2023/08/19 10:49:34;;;;;;;7.20;5.55;;;29.30;83.90;;;;;;5111335;28;20229;-66
2023/08/19 10:52:22;;;;;;;6.32;5.72;;;29.80;85.80;;;;;;5111109;28;20586;-66
2023/08/19 10:55:09;;;;;;;7.45;5.38;;;30.50;95.70;;;;;;5111089;28;20230;-66
2023/08/19 10:57:56;;;;;;;8.30;5.45;;;31.20;89.60;;;;;;5111851;28;20210;-66
2023/08/19 11:00:45;;;;;;;6.78;5.68;;;31.50;79.40;;;;;;5111731;28;20240;-66
2023/08/19 11:03:33;;;;;;;8.55;5.95;;;32.00;76.70;;;;;;5110421;28;20227;-66
2023/08/19 11:06:20;;;;;;;11.25;6.00;;;32.10;71.00;;;;;;5111683;28;20221;-66
2023/08/19 11:09:08;;;;;;;7.25;5.70;;;32.10;76.30;;;;;;5110991;28;20218;-67
2023/08/19 11:11:56;;;;;;;8.85;6.00;;;31.80;68.90;;;;;;5110946;28;20191;-66
2023/08/19 11:14:46;;;;;;;7.68;5.80;;;31.30;69.70;;;;;;5110471;28;20199;-66
2023/08/19 11:17:34;;;;;;;7.43;5.53;;;31.70;85.40;;;;;;5111115;28;20199;-66
2023/08/19 11:20:27;;;;;;;13.10;6.13;;;32.30;79.70;;;;;;5110440;28;20202;-66
2023/08/19 11:23:14;;;;;;;7.45;5.93;;;32.10;71.50;;;;;;5113919;28;20195;-66
2023/08/19 11:26:02;;;;;;;8.77;5.63;;;32.10;71.80;;;;;;5114265;28;20198;-66
2023/08/19 11:28:50;;;;;;;8.38;5.72;;;32.00;69.40;;;;;;5114507;28;20508;-66
2023/08/19 11:31:38;;;;;;;13.88;5.82;;;32.10;74.70;;;;;;5112470;28;20202;-66
2023/08/19 11:34:27;;;;;;;8.30;5.50;;;32.30;76.70;;;;;;5114121;28;20210;-67
2023/08/19 11:37:16;;;;;;;8.23;5.45;;;32.70;71.80;;;;;;5114320;28;20294;-66
2023/08/19 11:40:06;;;;;;;8.00;5.53;;;32.50;62.30;;;;;;5114934;28;20208;-66
2023/08/19 11:42:53;;;;;;;6.50;5.22;;;32.60;69.40;;;;;;5114487;28;20203;-66
2023/08/19 11:45:40;;;;;;;9.20;5.40;;;32.60;64.50;;;;;;5113897;28;20283;-66
2023/08/19 11:48:28;;;;;;;8.15;5.90;;;32.80;67.10;;;;;;5114313;28;20187;-66
2023/08/19 11:51:16;;;;;;;12.30;5.70;;;32.60;64.70;;;;;;5114087;28;20226;-66
2023/08/19 11:54:05;;;;;;;9.55;5.38;;;32.30;72.30;;;;;;5114305;28;20601;-66
2023/08/19 11:56:52;;;;;;;6.43;5.50;;;32.70;69.70;;;;;;5114087;28;20215;-66
2023/08/19 11:59:40;;;;;;;9.77;5.63;;;32.90;75.90;;;;;;5114161;28;20206;-66
2023/08/19 12:02:27;;;;;;;8.30;5.90;;;33.50;68.40;;;;;;5113426;28;20706;-66
2023/08/19 12:05:22;;;;;;;6.38;5.78;;;33.90;66.60;;;;;;5113184;28;20202;-66
2023/08/19 12:08:26;;;;;;;6.82;5.47;;;34.30;63.20;;;;;;5114123;28;20195;-67
2023/08/19 12:11:14;;;;;;;6.90;6.20;;;33.70;57.50;;;;;;5092770;28;20223;-66
2023/08/19 12:14:02;;;;;;;10.70;6.45;;;32.70;63.70;;;;;;5093554;28;20200;-66
2023/08/19 12:16:50;;;;;;;10.60;6.57;;;31.00;64.60;;;;;;5093328;28;20239;-66
2023/08/19 12:19:37;;;;;;;10.07;6.10;;;30.60;75.60;;;;;;5093352;28;20196;-67
2023/08/19 12:22:24;;;;;;;6.93;5.88;;;31.00;75.00;;;;;;5093202;28;20196;-66
2023/08/19 12:25:14;;;;;;;9.10;6.55;;;31.00;75.70;;;;;;5093182;28;20203;-66
2023/08/19 12:28:03;;;;;;;8.45;6.72;;;31.20;76.00;;;;;;5093490;28;20208;-66
2023/08/19 12:30:50;;;;;;;7.75;6.43;;;30.90;74.80;;;;;;5093109;28;20329;-66
2023/08/19 12:33:39;;;;;;;7.30;6.30;;;31.00;71.10;;;;;;5092145;28;20674;-66
2023/08/19 12:36:26;;;;;;;9.65;6.35;;;31.00;71.90;;;;;;5092816;28;20215;-66
2023/08/19 12:39:14;;;;;;;7.05;6.05;;;31.70;84.30;;;;;;5092831;28;20192;-66
2023/08/19 12:42:02;;;;;;;8.95;6.13;;;31.20;71.80;;;;;;5092987;28;20199;-66
2023/08/19 12:44:50;;;;;;;7.70;6.55;;;31.50;73.60;;;;;;5093006;28;20199;-66
2023/08/19 12:47:38;;;;;;;7.50;6.28;;;31.60;70.80;;;;;;5109507;28;20218;-66
2023/08/19 12:50:25;;;;;;;7.65;6.13;;;31.20;75.70;;;;;;5113406;28;20279;-66
2023/08/19 12:53:13;;;;;;;8.20;6.20;;;31.40;72.20;;;;;;5112861;28;20199;-66
2023/08/19 12:56:00;;;;;;;10.75;6.32;;;31.20;77.90;;;;;;5112886;28;20215;-66
2023/08/19 12:58:49;;;;;;;9.68;6.13;;;31.50;72.10;;;;;;5112971;28;20195;-67
2023/08/19 13:01:38;;;;;;;10.00;6.15;;;31.20;71.30;;;;;;5113001;28;20231;-66
2023/08/19 13:04:25;;;;;;;9.98;6.28;;;31.20;78.80;;;;;;5112877;28;20191;-66
2023/08/19 13:07:12;;;;;;;7.78;6.55;;;31.20;81.40;;;;;;5112237;28;20206;-66
2023/08/19 13:10:00;;;;;;;8.85;6.13;;;31.70;74.40;;;;;;5112961;28;20275;-66
2023/08/19 13:12:48;;;;;;;9.50;6.57;;;32.30;75.20;;;;;;5112277;28;20203;-66
2023/08/19 13:15:37;;;;;;;7.18;6.15;;;33.10;75.00;;;;;;5112103;28;20206;-66
2023/08/19 13:18:24;;;;;;;7.70;6.28;;;31.90;67.10;;;;;;5111902;28;20252;-66
2023/08/19 13:21:11;;;;;;;6.70;6.00;;;32.10;72.60;;;;;;5112520;28;20736;-66
2023/08/19 13:23:58;;;;;;;8.13;5.82;;;32.10;73.90;;;;;;5112470;28;20191;-67
2023/08/19 13:26:46;;;;;;;9.13;5.95;;;32.20;70.40;;;;;;5112289;28;20195;-66
2023/08/19 13:29:33;;;;;;;8.65;6.13;;;32.40;69.50;;;;;;5112250;28;20198;-66
2023/08/19 13:32:21;;;;;;;10.10;6.18;;;32.10;75.30;;;;;;5111798;28;20234;-66
2023/08/19 13:35:09;;;;;;;9.85;6.47;;;32.70;64.80;;;;;;5112046;28;20199;-66
2023/08/19 13:37:56;;;;;;;10.30;6.60;;;32.20;70.80;;;;;;5111486;28;20223;-66
2023/08/19 13:40:44;;;;;;;7.75;6.35;;;32.30;65.30;;;;;;5111527;28;20605;-66
2023/08/19 13:43:32;;;;;;;8.57;6.47;;;31.60;66.80;;;;;;5111874;28;20276;-66
2023/08/19 13:46:19;;;;;;;12.95;6.60;;;30.30;72.90;;;;;;5111953;28;20192;-66
2023/08/19 13:49:08;;;;;;;8.07;6.75;;;29.80;73.70;;;;;;5111682;28;20251;-66
2023/08/19 13:51:55;;;;;;;9.02;6.82;;;29.50;90.30;;;;;;5112799;28;20227;-66
2023/08/19 13:54:43;;;;;;;8.95;7.30;;;29.30;97.40;;;;;;5111532;28;20264;-66
2023/08/19 13:57:30;;;;;;;11.45;7.07;;;29.40;99.90;;;;;;5111872;28;20263;-67
2023/08/19 14:00:18;;;;;;;7.97;7.00;;;29.80;99.90;;;;;;5112483;28;20203;-66
2023/08/19 14:03:05;;;;;;;11.55;6.78;;;30.00;99.90;;;;;;5112253;28;20705;-66
2023/08/19 14:05:54;;;;;;;9.90;7.28;;;30.00;99.90;;;;;;5111206;28;20202;-66
2023/08/19 14:08:41;;;;;;;9.52;6.90;;;30.00;99.90;;;;;;5111443;28;20658;-66
2023/08/19 14:11:29;;;;;;;13.13;7.05;;;30.20;99.90;;;;;;5111555;28;20195;-66
2023/08/19 14:14:16;;;;;;;9.68;6.82;;;30.20;99.90;;;;;;5111116;28;20195;-66
2023/08/19 14:17:03;;;;;;;10.48;6.97;;;30.00;99.90;;;;;;5110862;28;20701;-66
2023/08/19 14:19:50;;;;;;;12.95;6.97;;;30.00;99.90;;;;;;5111185;28;20234;-66
2023/08/19 14:22:40;;;;;;;10.65;7.13;;;30.10;99.90;;;;;;5110834;28;20202;-66